sensor_id;sensor_type;location;lat;lon;timestamp;temperature;humidity
16116;DHT22;8162;47.104;15.432;2024-02-16T00:00:44;4.20;81.40
16116;DHT22;8162;47.104;15.432;2024-02-16T00:03:46;4.30;82.00
16116;DHT22;8162;47.104;15.432;2024-02-16T00:06:47;4.20;81.10
16116;DHT22;8162;47.104;15.432;2024-02-16T00:09:49;4.20;80.70
16116;DHT22;8162;47.104;15.432;2024-02-16T00:12:50;4.10;80.40
16116;DHT22;8162;47.104;15.432;2024-02-16T00:15:50;4.00;80.30
16116;DHT22;8162;47.104;15.432;2024-02-16T00:18:51;4.00;80.70
16116;DHT22;8162;47.104;15.432;2024-02-16T00:21:52;3.90;80.60
16116;DHT22;8162;47.104;15.432;2024-02-16T00:24:52;3.90;80.20
16116;DHT22;8162;47.104;15.432;2024-02-16T00:27:53;3.90;80.60
16116;DHT22;8162;47.104;15.432;2024-02-16T00:30:54;3.90;80.10
16116;DHT22;8162;47.104;15.432;2024-02-16T00:33:54;3.90;80.00
16116;DHT22;8162;47.104;15.432;2024-02-16T00:36:55;3.90;80.50
16116;DHT22;8162;47.104;15.432;2024-02-16T00:39:56;3.70;80.10
16116;DHT22;8162;47.104;15.432;2024-02-16T00:42:56;3.70;80.50
16116;DHT22;8162;47.104;15.432;2024-02-16T00:45:57;3.70;80.50
16116;DHT22;8162;47.104;15.432;2024-02-16T00:48:58;3.70;80.60
16116;DHT22;8162;47.104;15.432;2024-02-16T00:51:59;3.70;80.30
16116;DHT22;8162;47.104;15.432;2024-02-16T00:55:00;3.60;80.50
16116;DHT22;8162;47.104;15.432;2024-02-16T00:58:00;3.60;80.20
16116;DHT22;8162;47.104;15.432;2024-02-16T01:01:01;3.60;80.40
16116;DHT22;8162;47.104;15.432;2024-02-16T01:04:02;3.60;80.50
16116;DHT22;8162;47.104;15.432;2024-02-16T01:07:03;3.50;80.70
16116;DHT22;8162;47.104;15.432;2024-02-16T01:10:04;3.50;80.60
16116;DHT22;8162;47.104;15.432;2024-02-16T01:13:04;3.50;81.00
16116;DHT22;8162;47.104;15.432;2024-02-16T01:16:06;3.50;81.20
16116;DHT22;8162;47.104;15.432;2024-02-16T01:19:07;3.50;81.00
16116;DHT22;8162;47.104;15.432;2024-02-16T01:22:10;3.50;80.80
16116;DHT22;8162;47.104;15.432;2024-02-16T01:25:10;3.50;80.90
16116;DHT22;8162;47.104;15.432;2024-02-16T01:28:11;3.40;81.40
16116;DHT22;8162;47.104;15.432;2024-02-16T01:31:12;3.40;80.80
16116;DHT22;8162;47.104;15.432;2024-02-16T01:34:13;3.30;81.10
16116;DHT22;8162;47.104;15.432;2024-02-16T01:37:14;3.30;81.20
16116;DHT22;8162;47.104;15.432;2024-02-16T01:40:14;3.30;81.20
16116;DHT22;8162;47.104;15.432;2024-02-16T01:43:21;3.30;81.40
16116;DHT22;8162;47.104;15.432;2024-02-16T01:46:22;3.30;81.30
16116;DHT22;8162;47.104;15.432;2024-02-16T01:49:23;3.30;80.90
16116;DHT22;8162;47.104;15.432;2024-02-16T01:52:24;3.30;80.40
16116;DHT22;8162;47.104;15.432;2024-02-16T06:36:56;3.30;80.40
16116;DHT22;8162;47.104;15.432;2024-02-16T06:39:57;2.60;83.10
16116;DHT22;8162;47.104;15.432;2024-02-16T06:42:57;2.60;83.20
16116;DHT22;8162;47.104;15.432;2024-02-16T06:45:58;2.60;83.30
16116;DHT22;8162;47.104;15.432;2024-02-16T06:48:59;2.70;83.20
16116;DHT22;8162;47.104;15.432;2024-02-16T06:51:59;2.70;83.00
16116;DHT22;8162;47.104;15.432;2024-02-16T06:55:00;2.70;83.00
16116;DHT22;8162;47.104;15.432;2024-02-16T09:47:22;2.70;83.00
16116;DHT22;8162;47.104;15.432;2024-02-16T09:50:24;6.40;78.70
16116;DHT22;8162;47.104;15.432;2024-02-16T09:53:26;6.50;78.60
16116;DHT22;8162;47.104;15.432;2024-02-16T09:56:27;6.60;78.60
16116;DHT22;8162;47.104;15.432;2024-02-16T09:59:27;6.70;78.40
16116;DHT22;8162;47.104;15.432;2024-02-16T10:02:28;6.80;78.30
16116;DHT22;8162;47.104;15.432;2024-02-16T10:44:48;6.80;78.40
16116;DHT22;8162;47.104;15.432;2024-02-16T14:05:26;8.90;70.50
16116;DHT22;8162;47.104;15.432;2024-02-16T14:08:27;18.30;43.20
16116;DHT22;8162;47.104;15.432;2024-02-16T14:11:28;18.40;42.50
16116;DHT22;8162;47.104;15.432;2024-02-16T14:14:28;18.10;44.10
16116;DHT22;8162;47.104;15.432;2024-02-16T14:17:29;18.30;43.20
16116;DHT22;8162;47.104;15.432;2024-02-16T14:20:30;17.90;43.30
16116;DHT22;8162;47.104;15.432;2024-02-16T14:23:31;17.50;44.40
16116;DHT22;8162;47.104;15.432;2024-02-16T14:26:32;17.10;45.10
16116;DHT22;8162;47.104;15.432;2024-02-16T14:29:32;17.20;45.30
16116;DHT22;8162;47.104;15.432;2024-02-16T14:32:33;16.80;45.40
16116;DHT22;8162;47.104;15.432;2024-02-16T14:35:34;16.50;46.50
16116;DHT22;8162;47.104;15.432;2024-02-16T14:38:36;16.50;46.70
16116;DHT22;8162;47.104;15.432;2024-02-16T14:41:37;16.40;48.20
16116;DHT22;8162;47.104;15.432;2024-02-16T14:44:38;16.50;47.50
16116;DHT22;8162;47.104;15.432;2024-02-16T14:47:38;16.50;46.90
16116;DHT22;8162;47.104;15.432;2024-02-16T14:50:39;16.40;47.70
16116;DHT22;8162;47.104;15.432;2024-02-16T14:53:41;16.20;47.70
16116;DHT22;8162;47.104;15.432;2024-02-16T14:56:42;16.00;48.20
16116;DHT22;8162;47.104;15.432;2024-02-16T14:59:42;16.00;48.60
16116;DHT22;8162;47.104;15.432;2024-02-16T15:02:43;16.00;48.90
16116;DHT22;8162;47.104;15.432;2024-02-16T15:05:44;16.00;48.90
16116;DHT22;8162;47.104;15.432;2024-02-16T15:08:44;15.80;48.10
16116;DHT22;8162;47.104;15.432;2024-02-16T15:26:52;15.60;49.00
16116;DHT22;8162;47.104;15.432;2024-02-16T15:29:53;15.10;50.00
16116;DHT22;8162;47.104;15.432;2024-02-16T15:32:54;15.10;50.40
16116;DHT22;8162;47.104;15.432;2024-02-16T15:35:55;15.20;50.40
16116;DHT22;8162;47.104;15.432;2024-02-16T15:38:57;15.00;50.60
16116;DHT22;8162;47.104;15.432;2024-02-16T15:57:13;14.90;50.70
16116;DHT22;8162;47.104;15.432;2024-02-16T16:24:24;13.40;53.60
16116;DHT22;8162;47.104;15.432;2024-02-16T16:27:24;11.90;58.30
16116;DHT22;8162;47.104;15.432;2024-02-16T16:51:34;11.70;58.70
16116;DHT22;8162;47.104;15.432;2024-02-16T16:54:35;10.60;62.20
16116;DHT22;8162;47.104;15.432;2024-02-16T16:57:38;10.50;62.40
16116;DHT22;8162;47.104;15.432;2024-02-16T17:00:39;10.40;62.90
16116;DHT22;8162;47.104;15.432;2024-02-16T17:03:40;10.20;63.40
